createdAt,value
2023-05-20T00:01:15.478Z,7.63
2023-05-20T00:03:42.321Z,8.60
2023-05-20T00:06:11.586Z,8.48
2023-05-20T00:08:38.492Z,7.32
2023-05-20T00:11:05.314Z,8.30
2023-05-20T00:13:32.070Z,8.43
2023-05-20T00:15:58.792Z,9.98
2023-05-20T00:18:25.564Z,8.95
2023-05-20T00:20:54.320Z,10.10
2023-05-20T00:23:21.180Z,9.52
2023-05-20T00:25:48.002Z,9.30
2023-05-20T00:28:19.107Z,8.13
2023-05-20T00:30:45.909Z,9.02
2023-05-20T00:33:12.876Z,9.15
2023-05-20T00:35:39.629Z,7.70
2023-05-20T00:38:06.336Z,7.03
2023-05-20T00:40:33.036Z,8.05
2023-05-20T00:42:59.708Z,7.38
2023-05-20T00:45:26.523Z,8.35
2023-05-20T00:47:53.494Z,7.90
2023-05-20T00:50:20.855Z,7.45
2023-05-20T00:52:48.388Z,7.55
2023-05-20T00:55:15.283Z,8.05
2023-05-20T00:57:41.961Z,7.60
2023-05-20T01:00:11.216Z,8.55
2023-05-20T01:02:38.238Z,7.70
2023-05-20T01:05:05.321Z,8.57
2023-05-20T01:07:32.100Z,8.18
2023-05-20T01:10:00.941Z,7.47
2023-05-20T01:12:31.814Z,7.65
2023-05-20T01:15:12.080Z,8.00
2023-05-20T01:17:45.207Z,8.35
2023-05-20T01:20:14.356Z,7.55
2023-05-20T01:22:53.671Z,8.65
2023-05-20T01:25:20.885Z,8.25
2023-05-20T01:27:49.161Z,7.40
2023-05-20T01:30:16.798Z,7.90
2023-05-20T01:32:49.690Z,6.72
2023-05-20T01:35:18.038Z,8.25
2023-05-20T01:37:46.332Z,7.32
2023-05-20T01:40:15.743Z,7.40
2023-05-20T01:42:43.979Z,7.25
2023-05-20T01:45:11.267Z,7.80
2023-05-20T01:47:38.198Z,7.82
2023-05-20T01:50:05.557Z,6.47
2023-05-20T01:52:32.221Z,7.05
2023-05-20T01:55:01.876Z,7.88
2023-05-20T01:57:31.127Z,8.00
2023-05-20T01:59:57.798Z,8.60
2023-05-20T02:02:41.458Z,6.53
2023-05-20T02:05:08.724Z,6.80
2023-05-20T02:07:35.529Z,6.95
2023-05-20T02:10:02.223Z,6.20
2023-05-20T02:12:29.146Z,5.80
2023-05-20T02:14:56.056Z,8.02
2023-05-20T02:17:22.745Z,7.38
2023-05-20T02:19:49.784Z,8.10
2023-05-20T02:22:19.097Z,7.30
2023-05-20T02:24:46.052Z,7.57
2023-05-20T02:27:13.073Z,6.88
2023-05-20T02:29:42.531Z,7.22
2023-05-20T02:32:09.691Z,7.03
2023-05-20T02:34:36.463Z,6.75
2023-05-20T02:37:06.045Z,7.68
2023-05-20T02:39:35.298Z,6.38
2023-05-20T02:42:01.966Z,7.35
2023-05-20T02:44:31.468Z,7.95
2023-05-20T02:46:58.101Z,6.97
2023-05-20T02:49:24.739Z,10.05
2023-05-20T02:51:51.703Z,7.47
2023-05-20T02:54:18.559Z,7.53
2023-05-20T02:56:45.356Z,9.32
2023-05-20T02:59:15.645Z,9.38
2023-05-20T03:01:43.213Z,9.38
2023-05-20T03:04:10.137Z,11.27
2023-05-20T03:06:38.326Z,11.50
2023-05-20T03:09:05.906Z,11.13
2023-05-20T03:11:32.536Z,11.65
2023-05-20T03:13:59.398Z,10.88
2023-05-20T03:16:28.250Z,9.40
2023-05-20T03:18:55.197Z,9.98
2023-05-20T03:21:25.302Z,9.93
2023-05-20T03:23:54.573Z,10.27
2023-05-20T03:26:26.280Z,9.50
2023-05-20T03:28:52.919Z,9.73
2023-05-20T03:31:19.604Z,10.15
2023-05-20T03:33:53.799Z,10.05
2023-05-20T03:36:30.953Z,10.75
2023-05-20T03:39:03.048Z,10.82
2023-05-20T03:41:30.179Z,10.25
2023-05-20T03:44:17.425Z,9.73
2023-05-20T03:46:51.684Z,11.02
2023-05-20T03:49:21.111Z,9.48
2023-05-20T03:51:48.006Z,9.40
2023-05-20T03:54:16.804Z,9.10
2023-05-20T03:56:43.921Z,8.75
2023-05-20T03:59:10.611Z,9.85
2023-05-20T04:01:45.292Z,8.48
2023-05-20T04:04:13.699Z,8.55
2023-05-20T04:06:40.662Z,8.77
2023-05-20T04:09:08.743Z,7.75
2023-05-20T04:11:36.003Z,9.13
2023-05-20T04:14:02.832Z,7.72
2023-05-20T04:16:32.441Z,7.10
2023-05-20T04:19:11.271Z,7.85
2023-05-20T04:21:38.807Z,8.38
2023-05-20T04:24:11.104Z,8.02
2023-05-20T04:26:38.959Z,7.93
2023-05-20T04:29:08.455Z,10.20
2023-05-20T04:31:36.800Z,8.55
2023-05-20T04:34:04.440Z,8.55
2023-05-20T04:36:31.456Z,7.20
2023-05-20T04:38:58.222Z,8.07
2023-05-20T04:41:29.915Z,8.10
2023-05-20T04:44:01.960Z,7.93
2023-05-20T04:46:31.815Z,8.38
2023-05-20T04:48:58.810Z,7.10
2023-05-20T04:51:30.458Z,7.38
2023-05-20T04:54:05.107Z,9.23
2023-05-20T04:56:45.547Z,8.18
2023-05-20T04:59:16.714Z,8.63
2023-05-20T05:01:44.539Z,9.50
2023-05-20T05:04:11.771Z,8.73
2023-05-20T05:06:38.465Z,9.48
2023-05-20T05:09:05.743Z,9.98
2023-05-20T05:11:32.693Z,9.15
2023-05-20T05:13:59.617Z,8.75
2023-05-20T05:16:26.546Z,9.18
2023-05-20T05:18:53.354Z,7.82
2023-05-20T05:21:20.043Z,10.05
2023-05-20T05:23:46.800Z,8.60
2023-05-20T05:26:13.548Z,10.23
2023-05-20T05:28:43.374Z,9.10
2023-05-20T05:31:10.209Z,9.32
2023-05-20T05:33:36.980Z,8.38
2023-05-20T05:36:05.029Z,9.82
2023-05-20T05:38:31.806Z,9.25
2023-05-20T05:40:58.599Z,8.27
2023-05-20T05:43:25.427Z,8.23
2023-05-20T05:45:52.241Z,8.95
2023-05-20T05:48:18.937Z,9.88
2023-05-20T05:50:46.597Z,8.98
2023-05-20T05:53:13.463Z,8.90
2023-05-20T05:55:40.238Z,9.02
2023-05-20T05:58:07.067Z,9.05
2023-05-20T06:00:33.929Z,9.05
2023-05-20T06:03:00.896Z,8.95
2023-05-20T06:05:29.245Z,8.80
2023-05-20T06:07:56.609Z,8.90
2023-05-20T06:10:23.348Z,8.82
2023-05-20T06:12:50.163Z,9.45
2023-05-20T06:15:16.912Z,8.88
2023-05-20T06:17:43.628Z,8.85
2023-05-20T06:20:10.840Z,8.23
2023-05-20T06:22:37.757Z,8.13
2023-05-20T06:25:04.762Z,7.97
2023-05-20T06:27:31.463Z,8.82
2023-05-20T06:29:58.156Z,8.10
2023-05-20T06:32:24.889Z,7.88
2023-05-20T06:34:51.648Z,9.00
2023-05-20T06:37:18.296Z,8.45
2023-05-20T06:39:48.143Z,8.38
2023-05-20T06:42:14.829Z,8.23
2023-05-20T06:44:41.625Z,7.25
2023-05-20T06:47:08.394Z,7.30
2023-05-20T06:49:35.075Z,7.32
2023-05-20T06:52:02.019Z,8.00
2023-05-20T06:54:28.702Z,8.77
2023-05-20T06:56:55.483Z,7.50
2023-05-20T06:59:22.150Z,7.65
2023-05-20T07:01:48.870Z,8.05
2023-05-20T07:04:18.143Z,8.68
2023-05-20T07:06:44.953Z,6.50
2023-05-20T07:09:12.399Z,6.97
2023-05-20T07:11:51.930Z,7.15
2023-05-20T07:14:19.921Z,7.85
2023-05-20T07:16:46.784Z,6.85
2023-05-20T07:19:13.518Z,6.70
2023-05-20T07:21:40.914Z,5.25
2023-05-20T07:24:07.672Z,6.00
2023-05-20T07:26:36.472Z,6.00
2023-05-20T07:29:06.531Z,6.18
2023-05-20T07:31:42.776Z,5.63
2023-05-20T07:34:09.529Z,6.53
2023-05-20T07:36:37.576Z,6.20
2023-05-20T07:39:07.875Z,6.32
2023-05-20T07:41:38.681Z,5.47
2023-05-20T07:44:15.206Z,5.57
2023-05-20T07:46:42.127Z,5.18
2023-05-20T07:49:10.429Z,6.15
2023-05-20T07:51:38.381Z,4.30
2023-05-20T07:54:10.445Z,5.07
2023-05-20T07:56:37.424Z,4.22
2023-05-20T07:59:04.270Z,4.70
2023-05-20T08:01:41.076Z,5.55
2023-05-20T08:06:39.892Z,4.97
2023-05-20T08:09:08.082Z,5.50
2023-05-20T08:11:37.302Z,4.82
2023-05-20T08:14:22.013Z,4.20
2023-05-20T08:16:48.845Z,4.93
2023-05-20T08:19:18.444Z,4.60
2023-05-20T08:21:58.787Z,3.95
2023-05-20T08:24:25.947Z,4.07
2023-05-20T08:26:56.168Z,5.63
2023-05-20T08:29:22.960Z,4.38
2023-05-20T08:32:05.728Z,4.72
2023-05-20T08:34:35.142Z,4.35
2023-05-20T08:37:02.394Z,4.28
2023-05-20T08:39:29.205Z,4.28
2023-05-20T08:41:56.375Z,4.80
2023-05-20T08:44:26.975Z,4.85
2023-05-20T08:46:55.067Z,4.78
2023-05-20T08:49:22.410Z,4.75
2023-05-20T08:51:49.712Z,4.30
2023-05-20T08:54:18.054Z,4.95
2023-05-20T08:56:45.244Z,4.65
2023-05-20T08:59:13.419Z,4.22
2023-05-20T09:01:44.377Z,5.13
2023-05-20T09:04:11.436Z,3.60
2023-05-20T09:06:46.977Z,3.60
2023-05-20T09:09:14.854Z,4.60
2023-05-20T09:11:42.618Z,3.67
2023-05-20T09:14:10.029Z,4.47
2023-05-20T09:16:40.101Z,3.63
2023-05-20T09:19:19.090Z,3.83
2023-05-20T09:21:47.604Z,3.55
2023-05-20T09:24:14.413Z,3.00
2023-05-20T09:26:44.759Z,3.70
2023-05-20T09:29:12.096Z,3.88
2023-05-20T09:31:39.532Z,3.90
2023-05-20T09:34:07.313Z,4.22
2023-05-20T09:36:35.512Z,3.38
2023-05-20T09:39:05.575Z,3.88
2023-05-20T09:41:37.748Z,4.50
2023-05-20T09:44:07.819Z,4.25
2023-05-20T09:46:36.606Z,4.45
2023-05-20T09:49:05.289Z,3.38
2023-05-20T09:51:32.739Z,3.67
2023-05-20T09:54:00.766Z,3.22
2023-05-20T09:56:28.446Z,3.38
2023-05-20T09:58:58.855Z,3.17
2023-05-20T10:01:26.249Z,3.45
2023-05-20T10:03:53.725Z,3.83
2023-05-20T10:06:56.133Z,3.15
2023-05-20T10:09:43.216Z,2.67
2023-05-20T10:12:24.347Z,3.00
2023-05-20T10:15:18.647Z,3.25
2023-05-20T10:17:51.218Z,4.68
2023-05-20T10:20:18.118Z,3.85
2023-05-20T10:22:56.148Z,3.13
2023-05-20T10:25:27.752Z,2.70
2023-05-20T10:28:07.837Z,3.45
2023-05-20T10:30:35.095Z,2.75
2023-05-20T10:33:07.186Z,3.00
2023-05-20T10:35:34.204Z,2.78
2023-05-20T10:38:12.102Z,2.83
2023-05-20T10:40:39.906Z,3.42
2023-05-20T10:43:14.836Z,3.30
2023-05-20T10:45:56.196Z,2.78
2023-05-20T10:48:33.750Z,3.25
2023-05-20T10:51:05.931Z,3.30
2023-05-20T10:53:40.383Z,4.50
2023-05-20T10:56:17.567Z,3.28
2023-05-20T10:58:44.780Z,3.88
2023-05-20T11:01:12.276Z,3.47
2023-05-20T11:03:40.535Z,3.78
2023-05-20T11:06:19.606Z,4.07
2023-05-20T11:08:46.463Z,3.90
2023-05-20T11:11:14.560Z,3.55
2023-05-20T11:13:41.755Z,3.05
2023-05-20T11:16:09.477Z,3.03
2023-05-20T11:18:36.549Z,4.22
2023-05-20T11:21:03.368Z,3.60
2023-05-20T11:23:30.595Z,3.70
2023-05-20T11:25:58.120Z,2.78
2023-05-20T11:28:25.760Z,3.97
2023-05-20T11:30:53.001Z,2.90
2023-05-20T11:33:26.737Z,3.30
2023-05-20T11:35:56.866Z,3.83
2023-05-20T11:38:24.733Z,3.15
2023-05-20T11:40:56.119Z,3.42
2023-05-20T11:43:24.839Z,3.25
2023-05-20T11:45:59.880Z,2.47
2023-05-20T11:48:27.186Z,2.70
2023-05-20T11:50:56.518Z,2.50
2023-05-20T11:53:24.700Z,2.63
2023-05-20T11:55:54.992Z,2.58
2023-05-20T11:58:29.154Z,2.08
2023-05-20T12:01:05.219Z,2.53
2023-05-20T12:03:44.503Z,2.35
2023-05-20T12:06:13.624Z,2.47
2023-05-20T12:08:40.651Z,2.38
2023-05-20T12:11:07.892Z,2.58
2023-05-20T12:13:35.542Z,2.63
2023-05-20T12:16:02.720Z,2.60
2023-05-20T12:18:33.384Z,2.35
2023-05-20T12:21:07.293Z,2.28
2023-05-20T12:23:34.391Z,2.15
2023-05-20T12:26:01.607Z,2.33
2023-05-20T12:34:44.607Z,2.60
2023-05-20T12:37:11.418Z,3.17
2023-05-20T12:39:44.672Z,2.95
2023-05-20T12:42:11.842Z,2.95
2023-05-20T12:44:38.711Z,3.42
2023-05-20T12:47:05.630Z,2.90
2023-05-20T12:49:32.389Z,3.40
2023-05-20T12:52:01.483Z,3.03
2023-05-20T12:54:30.300Z,3.35
2023-05-20T12:56:57.626Z,2.88
2023-05-20T12:59:24.575Z,2.72
2023-05-20T13:01:55.666Z,3.15
2023-05-20T13:04:23.090Z,3.17
2023-05-20T13:06:49.827Z,3.15
2023-05-20T13:09:16.706Z,3.78
2023-05-20T13:12:08.303Z,3.25
2023-05-20T13:14:32.084Z,3.60
2023-05-20T13:17:05.769Z,3.10
2023-05-20T13:19:40.119Z,3.30
2023-05-20T13:22:06.968Z,3.63
2023-05-20T13:24:34.822Z,3.38
2023-05-20T13:27:05.949Z,3.20
2023-05-20T13:29:36.957Z,3.40
2023-05-20T13:32:12.294Z,3.30
2023-05-20T13:34:39.291Z,3.67
2023-05-20T13:37:11.422Z,5.20
2023-05-20T13:39:38.202Z,4.57
2023-05-20T13:42:05.225Z,4.40
2023-05-20T13:44:32.733Z,4.40
2023-05-20T13:46:59.973Z,3.60
2023-05-20T13:49:27.392Z,4.18
2023-05-20T13:51:54.332Z,4.13
2023-05-20T13:54:22.094Z,4.13
2023-05-20T13:56:49.335Z,3.38
2023-05-20T13:59:16.654Z,4.18
2023-05-20T14:01:45.413Z,5.55
2023-05-20T14:04:19.349Z,5.25
2023-05-20T14:06:46.568Z,4.00
2023-05-20T14:09:46.639Z,4.05
2023-05-20T14:12:22.624Z,4.38
2023-05-20T14:14:49.944Z,4.80
2023-05-20T14:17:20.422Z,4.40
2023-05-20T14:19:47.728Z,4.95
2023-05-20T14:22:15.858Z,4.07
2023-05-20T14:24:44.613Z,3.67
2023-05-20T14:27:20.313Z,3.90
2023-05-20T14:29:52.151Z,4.43
2023-05-20T14:32:41.642Z,4.53
2023-05-20T14:35:10.360Z,3.55
2023-05-20T14:37:46.862Z,4.00
2023-05-20T14:40:16.117Z,3.10
2023-05-20T14:45:33.491Z,3.08
2023-05-20T14:46:02.682Z,3.42
2023-05-20T14:48:35.160Z,3.40
2023-05-20T14:51:01.944Z,3.13
2023-05-20T14:53:28.732Z,3.50
2023-05-20T14:55:55.780Z,3.17
2023-05-20T14:58:24.766Z,3.05
2023-05-20T15:00:55.048Z,3.65
2023-05-20T15:03:24.631Z,3.15
2023-05-20T15:09:00.629Z,2.65
2023-05-20T15:11:40.271Z,2.80
2023-05-20T15:14:08.028Z,2.88
2023-05-20T15:16:35.218Z,3.15
2023-05-20T15:19:03.396Z,2.85
2023-05-20T15:21:31.517Z,3.15
2023-05-20T15:23:58.408Z,2.78
2023-05-20T15:26:25.246Z,2.70
2023-05-20T15:28:52.128Z,2.67
2023-05-20T15:31:19.016Z,3.40
2023-05-20T15:33:46.037Z,2.53
2023-05-20T15:36:12.960Z,2.33
2023-05-20T15:38:40.097Z,2.42
2023-05-20T15:41:07.948Z,3.08
2023-05-20T15:43:35.239Z,2.60
2023-05-20T15:46:02.270Z,3.33
2023-05-20T15:48:30.147Z,3.55
2023-05-20T15:51:07.486Z,3.20
2023-05-20T15:53:34.181Z,2.83
2023-05-20T15:56:00.897Z,2.75
2023-05-20T15:58:27.615Z,3.30
2023-05-20T16:00:54.263Z,2.33
2023-05-20T16:03:21.084Z,2.60
2023-05-20T16:05:47.780Z,2.80
2023-05-20T16:08:14.532Z,2.97
2023-05-20T16:10:41.445Z,2.83
2023-05-20T16:13:08.333Z,2.35
2023-05-20T16:15:38.183Z,4.40
2023-05-20T16:18:05.724Z,2.58
2023-05-20T16:20:32.556Z,3.60
2023-05-20T16:22:59.395Z,2.63
2023-05-20T16:25:26.186Z,3.15
2023-05-20T16:27:52.934Z,2.70
2023-05-20T16:30:19.657Z,3.00
2023-05-20T16:32:46.897Z,2.33
2023-05-20T16:35:16.125Z,2.08
2023-05-20T16:37:47.606Z,2.92
2023-05-20T16:40:20.475Z,2.40
2023-05-20T16:42:47.230Z,2.50
2023-05-20T16:45:14.049Z,2.10
2023-05-20T16:47:41.315Z,2.92
2023-05-20T16:50:08.993Z,2.50
2023-05-20T16:52:37.828Z,2.42
2023-05-20T16:55:08.298Z,2.63
2023-05-20T16:57:36.006Z,2.45
2023-05-20T17:00:07.638Z,2.90
2023-05-20T17:02:38.811Z,2.05
2023-05-20T17:05:06.300Z,2.28
2023-05-20T17:07:34.216Z,1.80
2023-05-20T17:10:01.194Z,2.53
2023-05-20T17:12:28.012Z,2.22
2023-05-20T17:14:54.808Z,2.17
2023-05-20T17:17:22.743Z,2.05
2023-05-20T17:19:49.942Z,2.22
2023-05-20T17:22:19.290Z,2.58
2023-05-20T17:24:48.068Z,1.45
2023-05-20T17:27:15.066Z,1.83
2023-05-20T17:29:46.077Z,1.67
2023-05-20T17:32:12.749Z,1.65
2023-05-20T17:34:39.840Z,1.63
2023-05-20T17:37:06.725Z,1.65
2023-05-20T17:39:36.764Z,1.45
2023-05-20T17:42:03.560Z,1.70
2023-05-20T17:44:30.323Z,1.88
2023-05-20T17:46:56.994Z,1.20
2023-05-20T17:49:23.695Z,1.30
2023-05-20T17:51:50.506Z,1.77
2023-05-20T17:54:17.134Z,1.77
2023-05-20T17:56:45.462Z,1.45
2023-05-20T17:59:12.102Z,1.70
2023-05-20T18:01:39.153Z,2.00
2023-05-20T18:04:06.411Z,1.58
2023-05-20T18:06:34.801Z,1.70
2023-05-20T18:09:10.881Z,1.92
2023-05-20T18:11:39.528Z,2.13
2023-05-20T18:14:06.477Z,1.55
2023-05-20T18:16:33.361Z,1.23
2023-05-20T18:19:00.273Z,1.70
2023-05-20T18:21:27.182Z,1.75
2023-05-20T18:23:55.106Z,1.95
2023-05-20T18:26:21.886Z,1.55
2023-05-20T18:28:51.241Z,1.63
2023-05-20T18:31:17.971Z,1.42
2023-05-20T18:33:44.713Z,1.52
2023-05-20T18:36:11.623Z,1.60
2023-05-20T18:38:41.221Z,2.72
2023-05-20T18:41:08.343Z,1.50
2023-05-20T18:43:35.853Z,2.03
2023-05-20T18:46:04.656Z,2.28
2023-05-20T18:48:31.567Z,1.23
2023-05-20T18:50:58.766Z,1.75
2023-05-20T18:53:25.587Z,2.38
2023-05-20T18:55:52.392Z,1.50
2023-05-20T18:58:19.081Z,1.67
2023-05-20T19:00:46.001Z,2.42
2023-05-20T19:03:13.231Z,1.48
2023-05-20T19:05:40.299Z,1.40
2023-05-20T19:08:08.784Z,1.42
2023-05-20T19:10:36.286Z,2.00
2023-05-20T19:13:03.165Z,2.83
2023-05-20T19:15:31.255Z,1.50
2023-05-20T19:17:58.005Z,1.45
2023-05-20T19:20:25.471Z,2.25
2023-05-20T19:22:55.278Z,1.38
2023-05-20T19:25:25.101Z,1.48
2023-05-20T19:27:51.835Z,2.00
2023-05-20T19:30:18.481Z,1.33
2023-05-20T19:32:45.257Z,1.65
2023-05-20T19:35:11.978Z,1.90
2023-05-20T19:37:38.854Z,1.30
2023-05-20T19:40:06.758Z,1.60
2023-05-20T19:42:33.487Z,1.30
2023-05-20T19:45:00.216Z,1.23
2023-05-20T19:47:27.071Z,1.33
2023-05-20T19:49:53.782Z,1.40
2023-05-20T19:52:20.526Z,1.75
2023-05-20T19:54:50.233Z,1.35
2023-05-20T19:57:16.978Z,1.40
2023-05-20T19:59:43.719Z,1.30
2023-05-20T20:02:10.593Z,1.40
2023-05-20T20:04:37.920Z,2.38
2023-05-20T20:07:04.783Z,1.63
2023-05-20T20:09:31.495Z,1.40
2023-05-20T20:11:58.180Z,1.88
2023-05-20T20:14:25.075Z,1.77
2023-05-20T20:16:51.729Z,1.40
2023-05-20T20:19:18.946Z,1.58
2023-05-20T20:21:46.453Z,3.22
2023-05-20T20:24:13.265Z,2.15
2023-05-20T20:26:42.574Z,1.60
2023-05-20T20:29:09.410Z,2.95
2023-05-20T20:31:36.167Z,1.30
2023-05-20T20:34:02.847Z,1.50
2023-05-20T20:36:32.079Z,1.60
2023-05-20T20:38:59.517Z,1.27
2023-05-20T20:41:26.275Z,1.70
2023-05-20T20:43:53.249Z,1.52
2023-05-20T20:46:22.893Z,1.40
2023-05-20T20:48:50.335Z,1.55
2023-05-20T20:51:17.951Z,1.42
2023-05-20T20:53:47.581Z,1.30
2023-05-20T20:56:14.454Z,1.50
2023-05-20T20:58:41.534Z,1.70
2023-05-20T21:01:10.105Z,1.80
2023-05-20T21:03:40.656Z,1.40
2023-05-20T21:06:08.110Z,2.25
2023-05-20T21:08:34.892Z,1.85
2023-05-20T21:11:02.526Z,1.75
2023-05-20T21:13:30.812Z,1.85
2023-05-20T21:15:57.451Z,1.80
2023-05-20T21:18:24.318Z,1.50
2023-05-20T21:20:55.111Z,2.00
2023-05-20T21:23:23.044Z,1.73
2023-05-20T21:25:50.063Z,1.60
2023-05-20T21:28:17.107Z,1.60
2023-05-20T21:30:45.016Z,2.00
2023-05-20T21:33:12.193Z,1.40
2023-05-20T21:35:38.895Z,1.88
2023-05-20T21:38:05.818Z,1.90
2023-05-20T21:40:32.684Z,2.25
2023-05-20T21:42:59.551Z,2.45
2023-05-20T21:45:26.401Z,2.53
2023-05-20T21:47:53.178Z,1.95
2023-05-20T21:50:19.929Z,2.17
2023-05-20T21:52:46.716Z,1.70
2023-05-20T21:55:13.579Z,1.80
2023-05-20T21:57:40.325Z,1.88
2023-05-20T22:00:15.650Z,1.50
2023-05-20T22:02:42.376Z,2.00
2023-05-20T22:05:09.628Z,2.28
2023-05-20T22:07:36.593Z,2.20
2023-05-20T22:10:03.724Z,2.08
2023-05-20T22:12:30.918Z,2.05
2023-05-20T22:14:57.577Z,1.65
2023-05-20T22:17:24.873Z,2.70
2023-05-20T22:19:51.817Z,2.72
2023-05-20T22:22:18.675Z,3.05
2023-05-20T22:24:45.817Z,3.97
2023-05-20T22:27:12.548Z,2.60
2023-05-20T22:29:39.258Z,3.45
2023-05-20T22:32:06.221Z,3.13
2023-05-20T22:34:33.005Z,2.60
2023-05-20T22:37:01.094Z,2.60
2023-05-20T22:39:27.822Z,3.22
2023-05-20T22:41:54.518Z,3.38
2023-05-20T22:44:21.549Z,2.33
2023-05-20T22:46:48.173Z,2.10
2023-05-20T22:49:15.555Z,2.15
2023-05-20T22:51:42.778Z,3.10
2023-05-20T23:03:24.103Z,2.10
2023-05-20T23:06:00.139Z,2.38
2023-05-20T23:08:26.993Z,2.70
2023-05-20T23:10:53.744Z,2.92
2023-05-20T23:13:20.596Z,2.67
2023-05-20T23:15:50.150Z,2.60
2023-05-20T23:18:17.414Z,3.00
2023-05-20T23:20:44.439Z,2.72
2023-05-20T23:23:11.653Z,2.85
2023-05-20T23:25:38.979Z,2.80
2023-05-20T23:28:06.070Z,2.65
2023-05-20T23:30:32.795Z,2.65
2023-05-20T23:32:59.630Z,2.60
2023-05-20T23:35:26.476Z,2.58
2023-05-20T23:37:53.116Z,2.60
2023-05-20T23:40:19.890Z,2.80
2023-05-20T23:42:46.670Z,2.30
2023-05-20T23:45:13.317Z,2.58
2023-05-20T23:47:40.084Z,2.65
2023-05-20T23:50:07.096Z,2.63
2023-05-20T23:52:33.814Z,2.88
2023-05-20T23:55:00.670Z,2.63
2023-05-20T23:57:27.353Z,2.58
2023-05-20T23:59:54.041Z,2.30
